Time;durP1;ratioP1;P1;durP2;ratioP2;P2;SDS_P1;SDS_P2;PMS_P1;PMS_P2;Temp;Humidity;BMP_temperature;BMP_pressure;BME280_temperature;BME280_humidity;BME280_pressure;Samples;Min_cycle;Max_cycle;Signal;HPM_P1;HPM_P2
2023/05/19 00:00:03;;;;;;;5.47;3.60;;;11.70;76.90;;;;;;5109949;28;20621;-69
2023/05/19 00:02:32;;;;;;;1.70;1.60;;;11.70;76.30;;;;;;5110257;28;20621;-70
2023/05/19 00:04:59;;;;;;;2.17;1.93;;;11.60;77.10;;;;;;5102885;28;20626;-69
2023/05/19 00:07:30;;;;;;;1.70;1.60;;;11.50;77.30;;;;;;5110940;28;20651;-70
2023/05/19 00:09:58;;;;;;;2.00;1.90;;;11.40;78.40;;;;;;5110413;28;20626;-70
2023/05/19 00:12:26;;;;;;;1.97;1.50;;;11.30;79.10;;;;;;5110949;28;21000;-70
2023/05/19 00:14:54;;;;;;;1.90;1.67;;;11.30;80.60;;;;;;5111029;28;20632;-69
2023/05/19 00:17:21;;;;;;;1.67;1.57;;;11.30;80.50;;;;;;5110693;28;20653;-70
2023/05/19 00:19:48;;;;;;;1.57;1.40;;;11.20;80.50;;;;;;5110050;28;20625;-69
2023/05/19 00:22:16;;;;;;;1.10;1.03;;;11.10;80.80;;;;;;5102086;28;20649;-69
2023/05/19 00:24:42;;;;;;;1.47;1.37;;;11.20;81.40;;;;;;5110752;28;21223;-70
2023/05/19 00:27:09;;;;;;;1.87;1.60;;;11.10;81.00;;;;;;5110468;28;20655;-69
2023/05/19 00:29:37;;;;;;;1.80;1.43;;;11.10;81.40;;;;;;5109821;28;20651;-69
2023/05/19 00:32:05;;;;;;;2.40;2.00;;;11.20;81.00;;;;;;5110185;28;20675;-69
2023/05/19 00:34:32;;;;;;;2.23;1.43;;;11.10;80.40;;;;;;5110561;28;20640;-69
2023/05/19 00:36:58;;;;;;;1.40;1.30;;;11.10;79.90;;;;;;5110328;28;21030;-69
2023/05/19 00:39:25;;;;;;;1.90;1.80;;;11.20;80.40;;;;;;5109579;28;21199;-69
2023/05/19 00:41:52;;;;;;;3.47;1.50;;;11.20;79.60;;;;;;5110020;28;21090;-69
2023/05/19 00:44:19;;;;;;;1.70;1.60;;;11.10;79.80;;;;;;5110126;28;21198;-69
2023/05/19 00:46:47;;;;;;;2.60;1.73;;;11.00;80.00;;;;;;5110386;28;21352;-69
2023/05/19 00:49:13;;;;;;;3.10;2.30;;;11.00;80.60;;;;;;5109030;28;20630;-71
2023/05/19 00:51:40;;;;;;;2.30;1.83;;;10.80;82.10;;;;;;5109321;28;21011;-69
2023/05/19 00:54:08;;;;;;;2.50;1.93;;;10.80;81.40;;;;;;5109743;28;21196;-70
2023/05/19 00:56:35;;;;;;;2.20;2.00;;;10.80;81.90;;;;;;5110304;28;20655;-69
2023/05/19 00:59:02;;;;;;;2.67;1.67;;;10.70;81.90;;;;;;5110176;28;20734;-69
2023/05/19 01:01:31;;;;;;;2.33;1.13;;;10.70;82.30;;;;;;5108434;28;21232;-69
2023/05/19 01:03:59;;;;;;;1.97;1.57;;;10.70;81.90;;;;;;5108641;28;20672;-69
2023/05/19 01:06:28;;;;;;;1.90;1.80;;;10.60;81.90;;;;;;5109146;28;20652;-69
2023/05/19 01:08:56;;;;;;;1.57;1.20;;;10.70;81.60;;;;;;5110225;28;20636;-70
2023/05/19 01:11:23;;;;;;;2.00;1.87;;;10.70;81.50;;;;;;5109076;28;21016;-71
2023/05/19 01:13:51;;;;;;;2.23;1.40;;;10.70;81.20;;;;;;5109453;28;21268;-69
2023/05/19 01:16:25;;;;;;;1.70;1.60;;;10.80;81.80;;;;;;5109421;28;21050;-69
2023/05/19 01:19:00;;;;;;;2.03;1.83;;;10.80;82.30;;;;;;5109671;28;20626;-69
2023/05/19 01:21:56;;;;;;;1.53;1.43;;;10.80;81.20;;;;;;5109100;28;20643;-70
2023/05/19 01:24:49;;;;;;;4.83;1.17;;;10.70;82.30;;;;;;5101889;28;20748;-69
2023/05/19 01:27:37;;;;;;;1.23;1.13;;;10.60;82.30;;;;;;5099098;28;20649;-69
2023/05/19 01:30:25;;;;;;;1.50;1.40;;;10.60;81.30;;;;;;5108808;28;20699;-70
2023/05/19 01:32:56;;;;;;;6.00;2.00;;;10.50;81.70;;;;;;5109075;28;20686;-69
2023/05/19 01:35:25;;;;;;;2.67;1.30;;;10.60;81.90;;;;;;5109221;28;20689;-69
2023/05/19 01:37:54;;;;;;;2.30;1.17;;;10.50;84.10;;;;;;5108777;28;20623;-69
2023/05/19 01:40:23;;;;;;;1.43;1.20;;;10.50;83.90;;;;;;5108827;28;20681;-69
2023/05/19 01:42:52;;;;;;;2.33;1.67;;;10.50;83.80;;;;;;5109104;28;20611;-69
2023/05/19 01:45:22;;;;;;;1.30;1.27;;;10.40;82.90;;;;;;5109378;28;21045;-69
2023/05/19 01:47:52;;;;;;;2.73;1.60;;;10.50;83.20;;;;;;5109340;28;20628;-70
2023/05/19 01:50:21;;;;;;;1.43;1.33;;;10.40;83.70;;;;;;5106587;28;20630;-69
2023/05/19 01:52:48;;;;;;;2.83;1.83;;;10.50;84.10;;;;;;5109154;28;21031;-70
2023/05/19 01:55:16;;;;;;;1.67;1.43;;;10.50;84.10;;;;;;5109105;28;20625;-69
2023/05/19 01:57:54;;;;;;;1.60;1.50;;;10.50;84.20;;;;;;5108933;28;20634;-69
2023/05/19 02:00:35;;;;;;;2.50;1.80;;;10.50;83.90;;;;;;5108160;28;21221;-70
2023/05/19 02:03:14;;;;;;;1.33;1.23;;;10.50;83.60;;;;;;5101096;28;20624;-70
2023/05/19 02:06:01;;;;;;;2.20;1.60;;;10.50;84.60;;;;;;5108831;28;20648;-70
2023/05/19 02:08:32;;;;;;;1.30;1.20;;;10.60;85.50;;;;;;5108824;28;20622;-69
2023/05/19 02:11:07;;;;;;;1.77;1.67;;;10.60;85.50;;;;;;5108202;28;20642;-69
2023/05/19 02:13:40;;;;;;;1.67;1.17;;;10.60;86.20;;;;;;5108713;28;20664;-69
2023/05/19 02:16:10;;;;;;;1.30;1.20;;;10.60;85.50;;;;;;5108894;28;20650;-69
2023/05/19 02:18:37;;;;;;;3.27;1.70;;;10.60;85.30;;;;;;5108748;28;21384;-70
2023/05/19 02:21:04;;;;;;;1.80;1.20;;;10.60;83.60;;;;;;5107927;28;20662;-69
2023/05/19 02:23:31;;;;;;;2.00;1.80;;;10.60;84.60;;;;;;5108148;28;21259;-69
2023/05/19 02:25:58;;;;;;;2.17;1.90;;;10.70;84.20;;;;;;5107819;28;21058;-70
2023/05/19 02:28:27;;;;;;;2.43;1.50;;;10.70;84.00;;;;;;5108798;28;20630;-69
2023/05/19 02:30:54;;;;;;;1.37;1.27;;;10.60;83.80;;;;;;5107470;28;20647;-70
2023/05/19 02:33:24;;;;;;;1.83;1.70;;;10.60;83.90;;;;;;5108361;28;20755;-69
2023/05/19 02:35:52;;;;;;;1.30;1.20;;;10.70;84.50;;;;;;5107981;28;20647;-69
2023/05/19 02:38:20;;;;;;;1.70;1.50;;;10.60;84.00;;;;;;5107999;28;20663;-69
2023/05/19 02:40:47;;;;;;;7.50;2.07;;;10.60;84.10;;;;;;5107683;28;20640;-70
2023/05/19 02:43:16;;;;;;;1.20;1.10;;;10.70;82.80;;;;;;5108544;28;20627;-70
2023/05/19 02:45:44;;;;;;;4.93;2.90;;;10.70;84.10;;;;;;5108036;28;20643;-69
2023/05/19 02:48:12;;;;;;;2.37;1.73;;;10.70;84.50;;;;;;5108546;28;20625;-69
2023/05/19 02:50:41;;;;;;;1.63;1.10;;;10.60;84.20;;;;;;5105493;28;20701;-70
2023/05/19 02:53:08;;;;;;;2.27;2.17;;;10.70;85.30;;;;;;5108010;28;20652;-70
2023/05/19 02:55:35;;;;;;;3.33;1.83;;;10.60;84.60;;;;;;5108170;28;20649;-70
2023/05/19 02:58:02;;;;;;;2.27;1.90;;;10.70;84.60;;;;;;5108179;28;20625;-70
2023/05/19 03:00:29;;;;;;;1.40;1.23;;;10.70;84.90;;;;;;5105918;28;20658;-70
2023/05/19 03:03:01;;;;;;;1.30;1.20;;;10.70;84.30;;;;;;5108329;28;20968;-70
2023/05/19 03:05:29;;;;;;;3.50;1.40;;;10.70;83.90;;;;;;5108372;28;21193;-70
2023/05/19 03:07:58;;;;;;;1.50;1.40;;;10.60;84.10;;;;;;5108092;28;20628;-70
2023/05/19 03:10:25;;;;;;;2.60;1.70;;;10.70;85.30;;;;;;5107322;28;20643;-70
2023/05/19 03:12:54;;;;;;;1.00;0.90;;;10.60;84.90;;;;;;5107950;28;20689;-70
2023/05/19 03:15:22;;;;;;;1.40;1.30;;;10.70;84.40;;;;;;5108238;28;21015;-70
2023/05/19 03:17:49;;;;;;;13.70;2.50;;;10.70;84.70;;;;;;5107617;28;21216;-70
2023/05/19 03:20:18;;;;;;;4.43;3.03;;;10.60;84.50;;;;;;5107140;28;21217;-70
2023/05/19 03:22:46;;;;;;;4.03;2.00;;;10.60;85.30;;;;;;5107905;28;20622;-70
2023/05/19 03:25:16;;;;;;;2.03;1.83;;;10.60;84.90;;;;;;5107828;28;20728;-70
2023/05/19 03:27:43;;;;;;;3.63;2.00;;;10.60;85.70;;;;;;5108121;28;20615;-70
2023/05/19 03:30:11;;;;;;;1.57;1.33;;;10.60;85.40;;;;;;5106820;28;20613;-70
2023/05/19 03:32:38;;;;;;;2.53;2.33;;;10.60;85.50;;;;;;5106619;28;20750;-70
2023/05/19 03:35:06;;;;;;;3.87;1.83;;;10.60;85.40;;;;;;5108068;28;20736;-70
2023/05/19 03:37:33;;;;;;;1.93;1.47;;;10.50;85.90;;;;;;5111590;28;20621;-71
2023/05/19 03:40:00;;;;;;;1.67;1.57;;;10.50;85.70;;;;;;5111285;28;20618;-70
2023/05/19 03:42:28;;;;;;;3.03;2.00;;;10.50;85.70;;;;;;5111389;28;20737;-70
2023/05/19 03:44:54;;;;;;;6.50;2.53;;;10.50;85.70;;;;;;5111143;28;20720;-70
2023/05/19 03:47:21;;;;;;;2.70;2.50;;;10.50;87.00;;;;;;5111516;28;20647;-70
2023/05/19 03:49:48;;;;;;;2.60;1.80;;;10.50;86.00;;;;;;5109155;28;20621;-68
2023/05/19 03:52:15;;;;;;;1.50;1.30;;;10.40;86.30;;;;;;5111333;28;21062;-68
2023/05/19 03:54:42;;;;;;;1.33;1.23;;;10.30;87.20;;;;;;5111265;28;20704;-69
2023/05/19 03:57:09;;;;;;;2.30;2.07;;;10.30;87.50;;;;;;5111338;28;20662;-69
2023/05/19 03:59:40;;;;;;;2.83;1.70;;;10.20;87.80;;;;;;5110826;27;20626;-69
2023/05/19 04:02:07;;;;;;;1.73;1.57;;;10.20;88.60;;;;;;5111252;28;20640;-70
2023/05/19 04:04:34;;;;;;;2.80;1.50;;;10.10;88.10;;;;;;5111206;28;20718;-69
2023/05/19 04:07:01;;;;;;;6.23;3.23;;;10.10;88.50;;;;;;5111357;28;21005;-69
2023/05/19 04:09:27;;;;;;;2.33;2.20;;;10.10;88.70;;;;;;5110594;28;21087;-69
2023/05/19 04:11:54;;;;;;;4.73;1.50;;;10.10;88.80;;;;;;5110511;27;20642;-70
2023/05/19 04:14:21;;;;;;;1.90;1.73;;;10.20;88.90;;;;;;5111390;28;21095;-70
2023/05/19 04:16:49;;;;;;;2.23;1.17;;;10.10;89.10;;;;;;5110718;28;20670;-69
2023/05/19 04:19:16;;;;;;;1.60;1.50;;;10.00;89.00;;;;;;5111157;27;20660;-71
2023/05/19 04:21:43;;;;;;;6.20;1.90;;;10.10;89.50;;;;;;5110422;28;20651;-70
2023/05/19 04:24:10;;;;;;;1.70;1.60;;;10.10;89.90;;;;;;5110845;28;20632;-69
2023/05/19 04:26:37;;;;;;;1.50;1.40;;;10.10;89.50;;;;;;5110557;28;20656;-69
2023/05/19 04:29:04;;;;;;;1.87;1.77;;;10.10;89.20;;;;;;5110706;28;20724;-69
2023/05/19 04:31:30;;;;;;;1.80;1.70;;;10.10;89.10;;;;;;5109973;28;21353;-70
2023/05/19 04:34:00;;;;;;;1.83;1.50;;;10.10;89.50;;;;;;5110451;28;21073;-69
2023/05/19 04:36:27;;;;;;;1.73;1.63;;;10.00;90.20;;;;;;5110449;28;20646;-69
2023/05/19 04:39:01;;;;;;;2.20;2.00;;;10.10;89.80;;;;;;5110143;28;20637;-69
2023/05/19 04:41:27;;;;;;;1.80;1.70;;;10.00;90.00;;;;;;5109656;28;20789;-69
2023/05/19 04:43:56;;;;;;;8.63;1.80;;;10.10;90.20;;;;;;5110517;28;20614;-70
2023/05/19 04:46:24;;;;;;;2.40;1.80;;;10.20;90.20;;;;;;5110440;28;20650;-69
2023/05/19 04:48:51;;;;;;;1.70;1.60;;;10.10;90.10;;;;;;5110196;28;20625;-70
2023/05/19 04:51:20;;;;;;;8.33;1.67;;;10.30;90.20;;;;;;5108008;28;20685;-70
2023/05/19 04:53:47;;;;;;;2.03;1.90;;;10.20;90.10;;;;;;5101583;28;20647;-69
2023/05/19 04:56:14;;;;;;;2.73;2.43;;;10.20;90.40;;;;;;5110266;28;20647;-69
2023/05/19 04:58:40;;;;;;;1.93;1.83;;;10.30;90.10;;;;;;5110039;28;20999;-71
2023/05/19 05:01:09;;;;;;;3.13;2.10;;;10.20;90.20;;;;;;5109530;28;20994;-70
2023/05/19 05:03:35;;;;;;;1.93;1.60;;;10.30;90.00;;;;;;5110144;28;21146;-70
2023/05/19 05:06:03;;;;;;;2.00;1.57;;;10.50;90.00;;;;;;5109591;28;20646;-70
2023/05/19 05:08:31;;;;;;;5.90;1.80;;;10.50;89.90;;;;;;5110208;28;20695;-70
2023/05/19 05:10:58;;;;;;;1.87;1.73;;;10.50;90.10;;;;;;5109117;28;20640;-70
2023/05/19 05:13:26;;;;;;;2.40;2.20;;;10.60;90.10;;;;;;5110095;28;20647;-70
2023/05/19 05:15:53;;;;;;;2.90;2.20;;;10.70;90.00;;;;;;5109556;28;21004;-70
2023/05/19 05:18:20;;;;;;;3.63;1.67;;;10.50;89.30;;;;;;5109753;28;20624;-71
2023/05/19 05:20:48;;;;;;;3.43;1.67;;;10.50;89.40;;;;;;5108479;28;20657;-70
2023/05/19 05:23:15;;;;;;;2.03;1.67;;;10.50;90.00;;;;;;5109472;28;21190;-69
2023/05/19 05:25:44;;;;;;;2.30;1.83;;;10.50;90.00;;;;;;5109553;28;21481;-70
2023/05/19 05:28:11;;;;;;;1.40;1.30;;;10.50;90.00;;;;;;5109648;28;21193;-69
2023/05/19 05:30:38;;;;;;;4.30;1.53;;;10.50;89.90;;;;;;5108557;28;21145;-69
2023/05/19 05:33:06;;;;;;;1.37;1.27;;;10.60;89.60;;;;;;5109254;28;20658;-70
2023/05/19 05:35:32;;;;;;;2.50;2.30;;;10.50;89.50;;;;;;5109286;28;20700;-70
2023/05/19 05:38:00;;;;;;;2.43;1.77;;;10.40;90.00;;;;;;5109378;28;20712;-69
2023/05/19 05:40:27;;;;;;;1.90;1.77;;;10.40;90.30;;;;;;5108349;28;21269;-69
2023/05/19 05:42:57;;;;;;;2.13;1.97;;;10.50;89.60;;;;;;5108790;28;21075;-69
2023/05/19 05:45:25;;;;;;;2.40;1.83;;;10.50;90.00;;;;;;5109053;28;21231;-70
2023/05/19 05:47:52;;;;;;;1.50;1.40;;;10.60;89.60;;;;;;5108653;28;20625;-69
2023/05/19 05:50:19;;;;;;;2.50;2.27;;;10.70;90.00;;;;;;5107024;28;20618;-69
2023/05/19 05:52:47;;;;;;;2.53;2.43;;;10.60;89.50;;;;;;5100778;28;21007;-70
2023/05/19 05:55:16;;;;;;;4.50;1.80;;;10.70;89.60;;;;;;5108723;28;20653;-69
2023/05/19 05:57:42;;;;;;;3.40;2.17;;;10.70;90.00;;;;;;5108943;28;20630;-70
2023/05/19 06:00:14;;;;;;;2.30;2.10;;;10.80;90.00;;;;;;5107246;28;20628;-70
2023/05/19 06:02:43;;;;;;;6.90;2.43;;;10.80;90.00;;;;;;5108750;28;20635;-69
2023/05/19 06:05:11;;;;;;;1.57;1.47;;;11.00;88.90;;;;;;5108827;28;20656;-69
2023/05/19 06:07:38;;;;;;;2.30;1.97;;;11.30;88.70;;;;;;5108644;28;21060;-70
2023/05/19 06:10:06;;;;;;;1.47;1.40;;;11.20;88.00;;;;;;5107984;28;20623;-69
2023/05/19 06:12:33;;;;;;;2.60;2.40;;;11.10;88.00;;;;;;5108752;28;20611;-70
2023/05/19 06:15:00;;;;;;;3.93;2.10;;;11.20;88.00;;;;;;5108624;28;20646;-69
2023/05/19 06:17:28;;;;;;;3.93;1.70;;;11.20;88.50;;;;;;5108682;28;20764;-69
2023/05/19 06:19:55;;;;;;;1.93;1.50;;;11.40;87.90;;;;;;5107824;28;20638;-70
2023/05/19 06:22:21;;;;;;;4.60;2.47;;;11.60;87.70;;;;;;5108599;28;20643;-69
2023/05/19 06:24:48;;;;;;;2.57;2.43;;;11.90;87.90;;;;;;5108300;28;20617;-69
2023/05/19 06:27:15;;;;;;;2.50;1.93;;;12.20;86.90;;;;;;5108225;28;20657;-69
2023/05/19 06:29:42;;;;;;;2.33;2.07;;;12.30;85.50;;;;;;5107480;28;20967;-69
2023/05/19 06:32:08;;;;;;;4.23;2.50;;;12.50;85.60;;;;;;5108494;28;20652;-69
2023/05/19 06:34:39;;;;;;;2.70;2.00;;;12.20;85.90;;;;;;5108428;28;20757;-71
2023/05/19 06:37:06;;;;;;;2.17;2.00;;;12.20;86.40;;;;;;5108353;28;20649;-70
2023/05/19 06:39:32;;;;;;;7.07;3.10;;;12.20;86.50;;;;;;5107360;28;20617;-70
2023/05/19 06:41:59;;;;;;;1.87;1.77;;;12.30;85.90;;;;;;5107799;28;20655;-70
2023/05/19 06:44:26;;;;;;;3.23;3.03;;;12.30;86.40;;;;;;5108503;28;20625;-70
2023/05/19 06:46:53;;;;;;;9.33;2.07;;;12.40;86.50;;;;;;5108175;28;21233;-70
2023/05/19 06:49:20;;;;;;;1.73;1.63;;;12.40;85.90;;;;;;5106455;28;21182;-70
2023/05/19 06:51:48;;;;;;;2.40;2.20;;;12.40;86.60;;;;;;5107949;28;20652;-70
2023/05/19 06:54:15;;;;;;;2.83;2.33;;;12.60;86.50;;;;;;5108392;28;20987;-70
2023/05/19 06:56:42;;;;;;;2.73;2.10;;;12.80;85.90;;;;;;5107996;28;21251;-70
2023/05/19 06:59:09;;;;;;;3.27;2.23;;;12.70;85.50;;;;;;5108138;28;20620;-70
2023/05/19 07:01:35;;;;;;;2.00;1.90;;;12.80;85.40;;;;;;5107445;28;21062;-70
2023/05/19 07:04:02;;;;;;;2.37;2.17;;;12.90;85.80;;;;;;5108104;28;20623;-70
2023/05/19 07:06:30;;;;;;;3.63;2.13;;;12.60;85.40;;;;;;5108020;28;20642;-70
2023/05/19 07:08:58;;;;;;;2.57;2.37;;;12.70;86.70;;;;;;5108398;28;20679;-70
2023/05/19 07:11:25;;;;;;;2.10;1.97;;;12.70;87.00;;;;;;5109678;28;20660;-70
2023/05/19 07:13:51;;;;;;;5.03;2.00;;;12.60;86.10;;;;;;5112150;27;20670;-70
2023/05/19 07:16:18;;;;;;;2.37;2.17;;;12.60;86.20;;;;;;5111996;28;20645;-70
2023/05/19 07:18:45;;;;;;;2.30;2.10;;;12.90;86.30;;;;;;5112137;28;20633;-70
2023/05/19 07:21:12;;;;;;;2.47;2.23;;;13.10;82.60;;;;;;5111369;27;20638;-70
2023/05/19 07:23:38;;;;;;;2.20;2.10;;;13.20;83.00;;;;;;5111629;28;20617;-70
2023/05/19 07:26:07;;;;;;;3.90;2.30;;;13.30;83.30;;;;;;5111723;28;20656;-70
2023/05/19 07:28:34;;;;;;;2.83;2.20;;;13.30;82.70;;;;;;5111894;27;20637;-71
2023/05/19 07:31:01;;;;;;;1.60;1.47;;;13.40;83.10;;;;;;5111363;28;20701;-70
2023/05/19 07:33:28;;;;;;;1.70;1.60;;;13.40;81.70;;;;;;5111629;28;20723;-70
2023/05/19 07:35:55;;;;;;;2.40;2.20;;;13.40;82.70;;;;;;5111507;28;20654;-70
2023/05/19 07:38:21;;;;;;;5.00;1.83;;;13.40;82.30;;;;;;5111213;28;20661;-70
2023/05/19 07:40:48;;;;;;;1.97;1.87;;;13.50;81.50;;;;;;5110832;28;20646;-71
2023/05/19 07:43:16;;;;;;;3.23;2.00;;;13.60;81.10;;;;;;5111895;28;20638;-71
2023/05/19 07:45:43;;;;;;;1.70;1.60;;;13.60;81.40;;;;;;5111644;28;20650;-71
2023/05/19 07:48:10;;;;;;;2.53;1.57;;;13.60;80.90;;;;;;5111506;28;20628;-70
2023/05/19 07:50:36;;;;;;;1.97;1.40;;;13.70;81.40;;;;;;5109045;27;20724;-68
2023/05/19 07:53:03;;;;;;;1.77;1.67;;;13.70;80.90;;;;;;5111329;28;20623;-70
2023/05/19 07:55:30;;;;;;;2.27;1.40;;;13.70;80.30;;;;;;5110747;28;20670;-70
2023/05/19 07:57:57;;;;;;;2.57;1.83;;;13.70;81.20;;;;;;5111366;28;21134;-69
2023/05/19 08:00:25;;;;;;;2.40;1.60;;;13.90;80.30;;;;;;5110320;28;20654;-69
2023/05/19 08:02:52;;;;;;;2.50;2.30;;;13.70;80.00;;;;;;5111656;28;21167;-70
2023/05/19 08:05:19;;;;;;;2.10;1.90;;;13.60;79.90;;;;;;5110742;28;20642;-71
2023/05/19 08:07:46;;;;;;;1.77;1.67;;;13.60;80.30;;;;;;5111136;28;20659;-71
2023/05/19 08:10:13;;;;;;;4.67;2.17;;;13.70;81.00;;;;;;5110083;28;20631;-70
2023/05/19 08:12:40;;;;;;;1.90;1.77;;;13.70;80.20;;;;;;5111158;27;20697;-69
2023/05/19 08:15:10;;;;;;;2.50;2.10;;;13.70;81.00;;;;;;5110832;28;20654;-69
2023/05/19 08:17:38;;;;;;;2.07;1.93;;;13.60;81.40;;;;;;5111092;28;20626;-70
2023/05/19 08:20:08;;;;;;;2.70;1.70;;;13.60;82.00;;;;;;5109741;28;20632;-69
2023/05/19 08:22:35;;;;;;;2.40;2.20;;;13.70;81.80;;;;;;5110202;28;20611;-70
2023/05/19 08:25:05;;;;;;;2.73;2.30;;;13.60;80.70;;;;;;5110724;28;20625;-71
2023/05/19 08:27:31;;;;;;;2.73;2.13;;;13.70;81.20;;;;;;5110870;28;20629;-71
2023/05/19 08:29:58;;;;;;;3.27;1.40;;;13.70;81.00;;;;;;5110148;28;20628;-71
2023/05/19 08:32:25;;;;;;;1.40;1.30;;;13.70;82.00;;;;;;5101830;28;21236;-71
2023/05/19 08:34:53;;;;;;;2.00;1.83;;;13.80;80.80;;;;;;5110771;28;20654;-70
2023/05/19 08:37:20;;;;;;;2.20;2.00;;;13.80;81.40;;;;;;5110189;28;21218;-70
2023/05/19 08:39:47;;;;;;;3.50;2.30;;;13.90;79.00;;;;;;5110299;28;20745;-70
2023/05/19 08:42:14;;;;;;;3.37;1.50;;;13.80;79.20;;;;;;5109896;28;20736;-69
2023/05/19 08:44:42;;;;;;;1.60;1.37;;;13.90;78.20;;;;;;5110553;27;20968;-68
2023/05/19 08:47:12;;;;;;;2.93;2.70;;;13.80;78.40;;;;;;5110263;28;20635;-69
2023/05/19 08:49:43;;;;;;;3.30;1.47;;;13.90;78.70;;;;;;5109069;28;20621;-68
2023/05/19 08:52:22;;;;;;;1.53;1.43;;;14.00;77.30;;;;;;5110237;27;20656;-69
2023/05/19 08:54:54;;;;;;;2.33;1.73;;;13.80;79.30;;;;;;5102130;28;20665;-69
2023/05/19 08:57:22;;;;;;;3.17;1.73;;;13.90;79.20;;;;;;5109482;28;20642;-69
2023/05/19 08:59:50;;;;;;;4.30;1.37;;;13.90;78.90;;;;;;5109507;28;20623;-69
2023/05/19 09:02:19;;;;;;;2.10;1.40;;;13.90;78.70;;;;;;5110238;28;20642;-68
2023/05/19 09:04:46;;;;;;;1.73;1.63;;;13.90;79.50;;;;;;5109957;28;20622;-69
2023/05/19 09:07:15;;;;;;;2.80;1.50;;;14.00;77.60;;;;;;5110303;28;20654;-69
2023/05/19 09:09:42;;;;;;;2.47;1.33;;;14.10;78.20;;;;;;5109180;28;20647;-68
2023/05/19 09:12:10;;;;;;;1.67;1.47;;;14.00;78.70;;;;;;5109680;28;21136;-68
2023/05/19 09:14:37;;;;;;;2.60;2.40;;;14.00;79.60;;;;;;5109813;28;20669;-70
2023/05/19 09:17:04;;;;;;;2.10;1.27;;;14.10;78.50;;;;;;5109910;28;20650;-70
2023/05/19 09:19:31;;;;;;;3.17;2.23;;;14.00;77.80;;;;;;5109288;28;20611;-69
2023/05/19 09:22:00;;;;;;;2.57;2.17;;;14.10;78.90;;;;;;5109592;28;20643;-69
2023/05/19 09:24:28;;;;;;;1.60;1.50;;;14.20;80.10;;;;;;5109338;28;20630;-70
2023/05/19 09:26:56;;;;;;;3.93;2.50;;;14.30;80.40;;;;;;5109363;28;20960;-70
2023/05/19 09:29:23;;;;;;;1.40;1.30;;;14.30;78.70;;;;;;5100725;28;21025;-71
2023/05/19 09:31:52;;;;;;;2.00;1.90;;;14.30;78.40;;;;;;5109232;28;20754;-70
2023/05/19 09:34:20;;;;;;;1.90;1.57;;;14.30;78.40;;;;;;5109272;28;20655;-70
2023/05/19 09:36:49;;;;;;;1.90;1.63;;;14.30;78.20;;;;;;5109323;28;20723;-70
2023/05/19 09:39:17;;;;;;;1.83;1.57;;;14.20;78.70;;;;;;5109028;28;20688;-69
2023/05/19 09:41:46;;;;;;;3.17;1.57;;;14.20;78.50;;;;;;5108815;28;20685;-70
2023/05/19 09:44:14;;;;;;;2.50;1.80;;;14.30;78.10;;;;;;5109385;28;20626;-69
2023/05/19 09:46:48;;;;;;;2.97;1.70;;;14.40;77.70;;;;;;5100583;28;20646;-70
2023/05/19 09:49:20;;;;;;;1.60;1.50;;;14.40;78.00;;;;;;5107995;28;20624;-69
2023/05/19 09:51:49;;;;;;;3.40;1.97;;;14.40;79.00;;;;;;5100080;28;21208;-70
2023/05/19 09:54:16;;;;;;;2.90;1.20;;;14.40;78.30;;;;;;5109338;28;21211;-70
2023/05/19 09:56:44;;;;;;;1.60;1.30;;;14.40;77.10;;;;;;5108787;28;20991;-69
2023/05/19 09:59:14;;;;;;;2.60;1.60;;;14.40;76.90;;;;;;5109063;27;20626;-69
2023/05/19 10:01:45;;;;;;;2.33;2.20;;;14.40;77.00;;;;;;5108102;28;21471;-69
2023/05/19 10:04:14;;;;;;;2.93;2.70;;;14.40;77.90;;;;;;5108753;28;20935;-69
2023/05/19 10:06:41;;;;;;;2.03;1.93;;;14.30;77.40;;;;;;5108704;28;20655;-70
2023/05/19 10:09:08;;;;;;;1.67;1.50;;;14.40;77.90;;;;;;5109019;28;20726;-69
2023/05/19 10:11:35;;;;;;;2.07;1.53;;;14.60;76.70;;;;;;5107931;28;20644;-70
2023/05/19 10:14:04;;;;;;;3.57;2.07;;;14.50;76.90;;;;;;5108483;28;20707;-69
2023/05/19 10:16:32;;;;;;;2.10;1.90;;;14.50;78.00;;;;;;5108561;28;20689;-70
2023/05/19 10:19:00;;;;;;;2.10;1.90;;;14.40;78.30;;;;;;5108830;28;20755;-70
2023/05/19 10:21:27;;;;;;;2.37;2.27;;;14.50;76.80;;;;;;5108170;28;20660;-69
2023/05/19 10:23:54;;;;;;;4.77;2.07;;;14.50;75.90;;;;;;5108492;28;20824;-69
2023/05/19 10:26:22;;;;;;;2.37;2.03;;;14.50;75.00;;;;;;5100216;28;21052;-69
2023/05/19 10:28:50;;;;;;;1.20;1.10;;;14.40;75.80;;;;;;5108187;28;20718;-69
2023/05/19 10:31:21;;;;;;;1.43;1.33;;;14.40;76.20;;;;;;5107597;28;20761;-69
2023/05/19 10:34:01;;;;;;;1.63;1.40;;;14.30;77.30;;;;;;5108608;28;20711;-69
2023/05/19 10:36:47;;;;;;;2.93;2.10;;;14.30;76.20;;;;;;5108414;28;21304;-69
2023/05/19 10:39:18;;;;;;;1.70;1.60;;;14.30;77.50;;;;;;5108105;28;20626;-69
2023/05/19 10:41:58;;;;;;;1.27;1.20;;;14.30;77.60;;;;;;5107835;28;20643;-69
2023/05/19 10:44:39;;;;;;;1.60;1.50;;;14.30;76.30;;;;;;5107989;28;20623;-70
2023/05/19 10:47:10;;;;;;;1.57;1.47;;;14.20;78.30;;;;;;5108522;28;20667;-69
2023/05/19 10:49:37;;;;;;;2.20;1.87;;;14.30;76.10;;;;;;5106579;28;20626;-69
2023/05/19 10:52:18;;;;;;;2.67;1.77;;;14.30;75.50;;;;;;5107777;28;20654;-70
2023/05/19 10:54:46;;;;;;;2.73;1.80;;;14.30;74.80;;;;;;5108227;28;20655;-69
2023/05/19 10:57:15;;;;;;;1.13;1.13;;;14.30;75.50;;;;;;5108077;28;20642;-69
2023/05/19 10:59:43;;;;;;;1.53;1.43;;;14.20;75.90;;;;;;5106929;28;20642;-70
2023/05/19 11:02:39;;;;;;;1.47;1.23;;;14.20;75.90;;;;;;5108054;28;20681;-70
2023/05/19 11:05:11;;;;;;;1.67;1.57;;;14.20;75.70;;;;;;5100449;28;20980;-70
2023/05/19 11:07:42;;;;;;;2.70;2.10;;;14.30;76.90;;;;;;5108385;28;20627;-69
2023/05/19 11:10:09;;;;;;;2.30;1.60;;;14.20;77.20;;;;;;5099752;28;20979;-70
2023/05/19 11:12:45;;;;;;;2.13;2.00;;;14.10;78.10;;;;;;5108151;28;20639;-69
2023/05/19 11:15:13;;;;;;;1.40;1.30;;;14.10;77.30;;;;;;5099431;28;20655;-70
2023/05/19 11:17:42;;;;;;;2.50;1.83;;;14.10;76.60;;;;;;5108170;28;20625;-70
2023/05/19 11:20:20;;;;;;;1.90;1.80;;;14.20;76.80;;;;;;5107207;28;20708;-69
2023/05/19 11:23:04;;;;;;;2.77;1.83;;;14.20;78.30;;;;;;5107968;28;20616;-70
2023/05/19 11:25:41;;;;;;;1.73;1.50;;;14.40;77.20;;;;;;5101084;28;20646;-69
2023/05/19 11:28:10;;;;;;;1.83;1.67;;;14.40;77.20;;;;;;5107633;28;20625;-69
2023/05/19 11:30:38;;;;;;;1.40;1.30;;;14.50;77.50;;;;;;5107188;28;20658;-70
2023/05/19 11:33:06;;;;;;;2.17;1.23;;;14.40;77.00;;;;;;5107770;28;20638;-69
2023/05/19 11:35:33;;;;;;;2.70;2.23;;;14.40;77.90;;;;;;5107733;28;20662;-70
2023/05/19 11:38:01;;;;;;;1.70;1.60;;;14.30;80.10;;;;;;5107286;28;20622;-69
2023/05/19 11:40:30;;;;;;;1.60;1.50;;;14.30;79.40;;;;;;5107153;28;21630;-69
2023/05/19 11:42:57;;;;;;;3.90;1.83;;;14.20;79.90;;;;;;5107598;28;20634;-69
2023/05/19 11:45:27;;;;;;;6.23;1.57;;;14.30;80.50;;;;;;5107762;28;21281;-70
2023/05/19 11:47:55;;;;;;;1.90;1.70;;;14.20;79.70;;;;;;5107566;28;20623;-69
2023/05/19 11:50:24;;;;;;;2.40;2.20;;;14.30;78.70;;;;;;5105757;28;20990;-70
2023/05/19 11:52:51;;;;;;;2.20;1.90;;;14.30;78.30;;;;;;5107664;28;20628;-71
2023/05/19 11:55:18;;;;;;;1.43;1.33;;;14.30;78.10;;;;;;5107776;28;20786;-71
2023/05/19 11:57:51;;;;;;;2.17;1.93;;;14.50;76.70;;;;;;5109375;28;21091;-70
2023/05/19 12:00:22;;;;;;;2.20;1.87;;;14.40;79.10;;;;;;5110383;27;20634;-70
2023/05/19 12:02:48;;;;;;;2.07;1.87;;;14.40;77.50;;;;;;5110982;28;20626;-71
2023/05/19 12:05:19;;;;;;;2.27;1.53;;;14.50;77.00;;;;;;5111168;28;20625;-70
2023/05/19 12:07:50;;;;;;;2.10;1.90;;;14.40;79.70;;;;;;5111292;28;20626;-71
2023/05/19 12:10:18;;;;;;;2.23;1.97;;;14.40;78.10;;;;;;5110602;28;20654;-70
2023/05/19 12:12:45;;;;;;;1.80;1.70;;;14.50;78.40;;;;;;5110959;28;20616;-70
2023/05/19 12:15:12;;;;;;;1.73;1.53;;;14.40;77.90;;;;;;5110965;28;20754;-70
2023/05/19 12:17:39;;;;;;;1.73;1.63;;;14.40;79.70;;;;;;5110790;28;20644;-70
2023/05/19 12:20:08;;;;;;;2.00;1.53;;;14.30;78.30;;;;;;5110279;28;20672;-70
2023/05/19 12:22:35;;;;;;;1.53;1.43;;;14.30;77.00;;;;;;5111137;28;20615;-71
2023/05/19 12:25:04;;;;;;;2.50;2.10;;;14.20;79.00;;;;;;5110638;28;20623;-70
2023/05/19 12:27:34;;;;;;;2.33;2.10;;;14.30;79.10;;;;;;5110742;28;20627;-70
2023/05/19 12:30:03;;;;;;;2.80;1.57;;;14.30;77.40;;;;;;5109415;28;20634;-71
2023/05/19 12:32:30;;;;;;;2.13;2.03;;;14.40;77.70;;;;;;5110826;28;20624;-68
2023/05/19 12:34:57;;;;;;;6.13;2.23;;;14.40;78.20;;;;;;5110614;28;20625;-68
2023/05/19 12:37:28;;;;;;;2.30;2.13;;;14.40;77.50;;;;;;5110629;28;20640;-68
2023/05/19 12:39:56;;;;;;;2.30;1.53;;;14.30;77.80;;;;;;5110458;27;21000;-68
2023/05/19 12:42:29;;;;;;;5.50;2.20;;;14.40;77.50;;;;;;5110046;28;20747;-68
2023/05/19 12:44:56;;;;;;;2.70;2.00;;;14.40;78.10;;;;;;5110752;27;20634;-69
2023/05/19 12:47:30;;;;;;;2.07;1.90;;;14.40;79.10;;;;;;5110113;28;20643;-69
2023/05/19 12:50:01;;;;;;;3.27;2.13;;;14.40;78.10;;;;;;5108886;28;20643;-69
2023/05/19 12:52:29;;;;;;;2.83;2.23;;;14.40;77.50;;;;;;5110090;28;21044;-69
2023/05/19 12:55:00;;;;;;;2.43;1.90;;;14.40;78.10;;;;;;5109915;28;20628;-69